Time;durP1;ratioP1;P1;durP2;ratioP2;P2;SDS_P1;SDS_P2;PMS_P1;PMS_P2;Temp;Humidity;BMP_temperature;BMP_pressure;BME280_temperature;BME280_humidity;BME280_pressure;Samples;Min_cycle;Max_cycle;Signal;HPM_P1;HPM_P2
2021/07/10 00:02:15;;;;;;;23.62;14.87;;;;;;;28.63;44.11;100919.31;4391321;32;20100;-72
2021/07/10 00:04:41;;;;;;;20.92;14.52;;;;;;;28.63;44.48;100918.56;4380175;32;20086;-72
2021/07/10 00:07:07;;;;;;;24.27;14.07;;;;;;;28.76;44.28;100922.22;4396519;32;20042;-72
2021/07/10 00:09:33;;;;;;;23.23;14.65;;;;;;;28.57;44.38;100912.13;4381085;32;20094;-72
2021/07/10 00:11:59;;;;;;;22.13;14.40;;;;;;;28.61;44.64;100910.44;4381868;32;20077;-73
2021/07/10 00:14:25;;;;;;;22.60;14.70;;;;;;;28.65;44.40;100898.50;4394034;32;21087;-72
2021/07/10 00:16:51;;;;;;;24.90;15.82;;;;;;;28.60;44.77;100894.37;4384069;32;20038;-71
2021/07/10 00:19:17;;;;;;;22.00;15.57;;;;;;;28.73;44.08;100897.25;4396752;32;20094;-72
2021/07/10 00:21:42;;;;;;;22.27;14.52;;;;;;;28.97;43.81;100885.34;4380028;32;20110;-72
2021/07/10 00:24:08;;;;;;;23.80;16.33;;;;;;;28.98;43.61;100889.03;4394726;32;20066;-72
2021/07/10 00:26:34;;;;;;;23.70;15.00;;;;;;;29.02;43.38;100883.66;4380620;32;20042;-72
2021/07/10 00:29:00;;;;;;;25.30;16.00;;;;;;;28.91;43.43;100883.94;4398108;32;20052;-72
2021/07/10 00:31:26;;;;;;;21.62;14.23;;;;;;;28.80;42.95;100876.28;4381343;32;20053;-72
2021/07/10 00:33:51;;;;;;;25.10;15.50;;;;;;;28.78;42.25;100878.97;4394918;32;20086;-72
2021/07/10 00:36:17;;;;;;;23.27;15.43;;;;;;;28.79;42.82;100882.66;4384213;32;20068;-72
2021/07/10 00:38:43;;;;;;;19.40;13.05;;;;;;;28.56;42.88;100882.38;4393077;32;20034;-72
2021/07/10 00:41:09;;;;;;;20.80;13.95;;;;;;;28.69;42.44;100875.78;4385202;32;20050;-72
2021/07/10 00:43:34;;;;;;;19.00;12.95;;;;;;;28.80;42.71;100872.59;4391053;32;20422;-72
2021/07/10 00:46:01;;;;;;;23.25;13.32;;;;;;;28.60;42.85;100874.13;4384486;32;20125;-72
2021/07/10 00:48:27;;;;;;;20.50;12.98;;;;;;;28.52;42.81;100872.47;4390582;32;20060;-72
2021/07/10 00:50:52;;;;;;;18.80;12.32;;;;;;;28.60;42.90;100865.44;4386374;32;20054;-71
2021/07/10 00:53:18;;;;;;;18.30;12.35;;;;;;;28.62;42.93;100865.66;4397084;32;20089;-72
2021/07/10 00:55:44;;;;;;;21.60;14.30;;;;;;;28.69;42.81;100867.09;4386818;32;20026;-72
2021/07/10 00:58:11;;;;;;;25.17;14.50;;;;;;;28.69;42.83;100870.75;4387489;32;20409;-72
2021/07/10 01:00:37;;;;;;;20.70;15.13;;;;;;;28.70;42.93;100857.06;4387566;32;20072;-72
2021/07/10 01:03:03;;;;;;;21.98;14.87;;;;;;;28.84;42.36;100861.47;4380932;32;20093;-72
2021/07/10 01:05:31;;;;;;;20.60;14.15;;;;;;;28.86;42.59;100855.88;4396055;32;20403;-72
2021/07/10 01:07:57;;;;;;;24.45;14.65;;;;;;;28.81;42.55;100851.75;4381627;32;20928;-72
2021/07/10 01:10:24;;;;;;;20.85;14.13;;;;;;;28.64;42.99;100853.50;4391735;32;20053;-72
2021/07/10 01:12:52;;;;;;;21.85;15.00;;;;;;;28.59;43.10;100842.84;4392083;32;20134;-72
2021/07/10 01:15:21;;;;;;;25.27;15.43;;;;;;;28.67;43.33;100844.47;4391042;32;20043;-72
2021/07/10 01:17:47;;;;;;;22.92;15.75;;;;;;;28.61;43.42;100838.03;4392385;32;20070;-72
2021/07/10 01:20:16;;;;;;;22.62;15.35;;;;;;;28.40;43.74;100831.41;4386829;32;20432;-72
2021/07/10 01:22:43;;;;;;;22.45;16.12;;;;;;;28.45;43.66;100827.63;4395631;32;20095;-72
2021/07/10 01:25:11;;;;;;;27.90;16.67;;;;;;;28.26;44.23;100826.97;4380731;32;20104;-72
2021/07/10 01:27:38;;;;;;;25.73;17.52;;;;;;;28.17;44.13;100830.34;4393159;32;20332;-72
2021/07/10 01:30:10;;;;;;;26.95;17.02;;;;;;;28.22;44.41;100832.31;4377859;32;20117;-72
2021/07/10 01:32:37;;;;;;;27.08;17.10;;;;;;;28.28;44.48;100835.88;4394563;32;20078;-72
2021/07/10 01:35:03;;;;;;;31.33;19.33;;;;;;;27.92;44.53;100826.13;4383036;32;20202;-71
2021/07/10 01:37:29;;;;;;;28.25;18.95;;;;;;;27.93;44.59;100832.69;4390564;32;20105;-72
2021/07/10 01:39:55;;;;;;;30.30;19.15;;;;;;;28.00;44.73;100827.03;4381210;32;20042;-71
2021/07/10 01:42:20;;;;;;;28.38;18.87;;;;;;;28.21;44.30;100827.09;4390504;32;20069;-72
2021/07/10 01:44:48;;;;;;;33.13;19.77;;;;;;;28.42;43.98;100822.94;4385405;32;20093;-72
2021/07/10 01:47:15;;;;;;;33.13;20.50;;;;;;;28.50;43.67;100812.22;4390621;32;20467;-72
2021/07/10 01:49:42;;;;;;;33.28;20.48;;;;;;;28.48;44.14;100808.34;4387198;32;20093;-72
2021/07/10 01:52:07;;;;;;;34.22;20.75;;;;;;;28.36;44.50;100793.34;4384051;32;20077;-72
2021/07/10 01:54:33;;;;;;;33.38;20.20;;;;;;;28.51;44.37;100798.53;4388061;32;20034;-72
2021/07/10 01:56:59;;;;;;;33.65;20.55;;;;;;;28.50;44.50;100791.97;4382765;32;21218;-72
2021/07/10 01:59:25;;;;;;;35.08;21.60;;;;;;;28.63;44.02;100794.03;4391846;32;20061;-72
2021/07/10 02:01:52;;;;;;;36.13;21.67;;;;;;;28.61;44.15;100788.81;4379963;32;20741;-72
2021/07/10 02:04:21;;;;;;;34.35;21.90;;;;;;;28.88;43.97;100786.56;4389956;32;20487;-72
2021/07/10 02:06:47;;;;;;;34.60;22.70;;;;;;;28.95;43.67;100782.94;4381609;32;21248;-72
2021/07/10 02:09:14;;;;;;;33.00;21.30;;;;;;;28.85;44.02;100784.78;4395808;32;20113;-72
2021/07/10 02:11:46;;;;;;;37.45;23.20;;;;;;;28.89;43.66;100782.31;4384365;32;20097;-72
2021/07/10 02:14:14;;;;;;;33.47;21.87;;;;;;;28.98;43.06;100785.50;4400980;32;20078;-71
2021/07/10 02:16:39;;;;;;;35.67;22.17;;;;;;;28.84;43.54;100781.09;4383179;32;20051;-72
2021/07/10 02:19:05;;;;;;;34.42;22.70;;;;;;;28.55;43.84;100781.59;4394552;32;20034;-72
2021/07/10 02:21:31;;;;;;;41.25;24.12;;;;;;;28.64;43.58;100781.88;4381366;32;20082;-72
2021/07/10 02:23:57;;;;;;;38.28;24.30;;;;;;;28.52;43.89;100771.12;4395908;32;20378;-72
2021/07/10 02:26:24;;;;;;;39.40;23.12;;;;;;;28.53;43.78;100776.34;4381810;32;20057;-72
2021/07/10 02:28:50;;;;;;;33.47;20.55;;;;;;;28.56;44.00;100769.44;4394366;32;20081;-72
2021/07/10 02:31:17;;;;;;;41.85;25.08;;;;;;;28.63;44.23;100768.72;4384103;32;20139;-72
2021/07/10 02:33:42;;;;;;;41.55;25.40;;;;;;;28.74;43.90;100767.69;4393366;32;20408;-72
2021/07/10 02:36:08;;;;;;;45.88;24.87;;;;;;;28.59;43.92;100770.44;4384339;32;20131;-72
2021/07/10 02:38:34;;;;;;;46.80;25.58;;;;;;;28.49;44.01;100769.34;4397238;32;20130;-71
2021/07/10 02:41:00;;;;;;;45.95;26.02;;;;;;;28.32;44.47;100766.06;4391623;32;20054;-71
2021/07/10 02:43:25;;;;;;;44.80;26.10;;;;;;;28.36;44.24;100755.69;4389120;32;20121;-71
2021/07/10 02:45:51;;;;;;;47.33;26.45;;;;;;;28.25;44.57;100755.16;4389700;32;20187;-72
2021/07/10 02:48:17;;;;;;;49.25;26.65;;;;;;;28.33;44.38;100753.16;4389565;32;20038;-71
2021/07/10 02:50:43;;;;;;;49.63;27.75;;;;;;;28.41;44.37;100751.87;4388210;32;20230;-72
2021/07/10 02:53:08;;;;;;;56.50;30.17;;;;;;;28.31;44.41;100742.13;4393617;32;20979;-74
2021/07/10 02:55:36;;;;;;;52.20;29.77;;;;;;;28.31;44.25;100747.12;4387392;32;20628;-71
2021/07/10 02:58:02;;;;;;;52.65;29.50;;;;;;;28.53;44.05;100750.28;4396087;32;20077;-72
2021/07/10 03:00:31;;;;;;;52.58;28.38;;;;;;;28.47;44.10;100752.56;4383210;32;20081;-71
2021/07/10 03:02:58;;;;;;;55.28;29.48;;;;;;;28.86;43.72;100748.66;4392933;32;20030;-71
2021/07/10 03:05:24;;;;;;;47.35;27.25;;;;;;;28.81;43.36;100743.81;4382306;32;20108;-71
2021/07/10 03:07:50;;;;;;;50.72;28.77;;;;;;;28.85;43.45;100747.12;4395294;32;20167;-71
2021/07/10 03:10:19;;;;;;;49.50;30.15;;;;;;;28.92;43.29;100744.28;4381843;32;20532;-71
2021/07/10 03:12:46;;;;;;;47.15;27.90;;;;;;;29.17;43.09;100749.75;4394939;32;20046;-71
2021/07/10 03:15:15;;;;;;;47.92;27.60;;;;;;;28.95;43.25;100733.69;4381202;32;20579;-71
2021/07/10 03:17:43;;;;;;;55.15;29.77;;;;;;;28.92;43.05;100729.03;4395870;32;20081;-72
2021/07/10 03:20:10;;;;;;;53.58;29.30;;;;;;;28.84;43.32;100731.84;4380744;32;20496;-71
2021/07/10 03:22:36;;;;;;;50.88;29.23;;;;;;;28.82;43.31;100720.09;4394707;32;20026;-71
2021/07/10 03:25:06;;;;;;;48.83;29.60;;;;;;;28.80;43.28;100725.66;4382481;32;20209;-71
2021/07/10 03:27:34;;;;;;;51.63;29.65;;;;;;;29.08;42.86;100729.97;4398749;32;20046;-71
2021/07/10 03:30:00;;;;;;;53.83;30.50;;;;;;;28.85;43.00;100723.97;4383578;32;20043;-71
2021/07/10 03:32:26;;;;;;;54.05;28.98;;;;;;;28.73;43.25;100734.28;4395456;32;20070;-72
2021/07/10 03:34:52;;;;;;;57.30;29.92;;;;;;;28.59;43.46;100732.81;4379028;32;20074;-71
2021/07/10 03:37:17;;;;;;;51.67;28.58;;;;;;;28.65;43.45;100737.09;4391879;32;20414;-71
2021/07/10 03:39:43;;;;;;;55.97;27.77;;;;;;;28.58;43.32;100732.03;4384866;32;20038;-71
2021/07/10 03:42:09;;;;;;;53.35;28.38;;;;;;;28.49;43.41;100738.31;4396992;32;20074;-71
2021/07/10 03:44:34;;;;;;;45.12;26.45;;;;;;;28.59;43.52;100730.66;4383746;32;20118;-72
2021/07/10 03:47:00;;;;;;;43.25;25.50;;;;;;;28.56;43.32;100731.03;4396174;32;20042;-71
2021/07/10 03:49:26;;;;;;;45.30;26.12;;;;;;;28.65;43.05;100734.19;4380991;32;20112;-71
2021/07/10 03:51:52;;;;;;;45.90;26.25;;;;;;;28.67;42.63;100740.22;4393602;32;20467;-71
2021/07/10 03:54:19;;;;;;;48.72;27.75;;;;;;;28.74;42.76;100735.81;4380642;32;20042;-72
2021/07/10 03:56:45;;;;;;;47.38;27.17;;;;;;;28.65;42.74;100737.09;4396129;32;20346;-71
2021/07/10 03:59:11;;;;;;;44.15;25.65;;;;;;;28.68;42.80;100730.19;4380122;32;20522;-71
2021/07/10 04:01:36;;;;;;;43.90;25.08;;;;;;;28.69;43.07;100719.38;4393063;32;20105;-71
2021/07/10 04:04:03;;;;;;;44.03;24.27;;;;;;;28.60;42.95;100728.56;4384538;32;20200;-72
2021/07/10 04:06:29;;;;;;;48.65;26.37;;;;;;;28.86;42.69;100726.28;4394885;32;20030;-72
2021/07/10 04:08:55;;;;;;;41.67;25.80;;;;;;;28.71;42.49;100726.16;4383048;32;20386;-72
2021/07/10 04:11:21;;;;;;;40.90;23.20;;;;;;;28.84;42.58;100728.19;4394044;32;20062;-72
2021/07/10 04:13:47;;;;;;;45.65;26.35;;;;;;;28.62;42.87;100722.97;4380766;32;20080;-72
2021/07/10 04:16:14;;;;;;;41.92;23.75;;;;;;;28.67;42.82;100728.63;4396760;32;20403;-72
2021/07/10 04:18:40;;;;;;;42.38;25.33;;;;;;;28.56;42.61;100731.03;4385857;32;20111;-72
2021/07/10 04:21:06;;;;;;;43.80;24.15;;;;;;;28.20;43.54;100725.03;4395825;32;20074;-72
2021/07/10 04:23:32;;;;;;;45.53;25.95;;;;;;;28.52;43.00;100722.69;4378978;32;20031;-71
2021/07/10 04:26:01;;;;;;;42.95;25.27;;;;;;;28.64;42.93;100723.19;4395199;32;20101;-72
2021/07/10 04:28:27;;;;;;;41.83;25.77;;;;;;;28.58;42.95;100720.44;4382587;32;20156;-72
2021/07/10 04:30:53;;;;;;;43.87;25.00;;;;;;;28.57;43.31;100724.69;4391765;32;20030;-72
2021/07/10 04:33:18;;;;;;;44.20;26.05;;;;;;;28.64;43.27;100723.19;4387715;32;20030;-72
2021/07/10 04:35:44;;;;;;;42.60;25.35;;;;;;;28.72;43.04;100718.25;4386236;32;20085;-72
2021/07/10 04:38:10;;;;;;;49.30;25.65;;;;;;;28.73;42.99;100716.91;4388455;32;20091;-72
2021/07/10 04:40:36;;;;;;;42.78;25.83;;;;;;;28.87;42.77;100719.13;4385011;32;20158;-72
2021/07/10 04:43:03;;;;;;;41.25;25.05;;;;;;;28.95;42.48;100714.19;4392104;32;20128;-71
2021/07/10 04:45:28;;;;;;;40.70;23.85;;;;;;;29.00;42.54;100724.09;4379811;32;20077;-72
2021/07/10 04:47:54;;;;;;;38.05;23.85;;;;;;;28.98;42.32;100715.94;4393846;32;20117;-72
2021/07/10 04:50:21;;;;;;;41.45;25.60;;;;;;;29.00;42.39;100724.84;4384759;32;20881;-72
2021/07/10 04:52:48;;;;;;;37.80;23.35;;;;;;;28.92;42.50;100711.66;4393057;32;20031;-72
2021/07/10 04:55:15;;;;;;;38.00;22.05;;;;;;;29.20;42.47;100711.69;4386719;32;20123;-72
2021/07/10 04:57:42;;;;;;;36.88;22.40;;;;;;;29.07;42.59;100711.78;4393366;32;20039;-71
2021/07/10 05:00:09;;;;;;;38.65;22.25;;;;;;;29.13;42.49;100711.63;4381568;32;20979;-72
2021/07/10 05:02:35;;;;;;;27.85;18.98;;;;;;;29.15;42.67;100706.06;4394390;32;20092;-72
2021/07/10 05:05:02;;;;;;;33.65;20.17;;;;;;;29.18;42.37;100714.41;4384706;32;20034;-72
2021/07/10 05:07:27;;;;;;;29.58;19.85;;;;;;;29.06;42.45;100718.16;4392927;32;20154;-72
2021/07/10 05:09:53;;;;;;;39.20;21.98;;;;;;;29.09;42.21;100717.81;4383179;32;20071;-72
2021/07/10 05:12:22;;;;;;;33.80;21.65;;;;;;;29.15;42.43;100715.53;4397329;32;20448;-72
2021/07/10 05:14:49;;;;;;;31.77;20.45;;;;;;;29.21;42.43;100709.56;4381445;32;20049;-72
2021/07/10 05:17:17;;;;;;;34.35;21.85;;;;;;;29.13;42.41;100712.41;4395819;32;20448;-71
2021/07/10 05:19:43;;;;;;;30.80;20.25;;;;;;;29.15;42.41;100720.53;4383994;32;20532;-72
2021/07/10 05:22:09;;;;;;;35.22;20.95;;;;;;;29.00;42.44;100721.19;4393321;32;20059;-72
2021/07/10 05:24:35;;;;;;;33.33;21.15;;;;;;;29.06;42.39;100721.06;4383072;32;20029;-72
2021/07/10 05:27:01;;;;;;;33.47;21.67;;;;;;;29.06;42.50;100718.94;4395044;32;20411;-72
2021/07/10 05:29:27;;;;;;;37.55;22.17;;;;;;;29.09;42.50;100717.81;4382495;32;20083;-72
2021/07/10 05:31:52;;;;;;;38.85;22.15;;;;;;;29.17;42.60;100707.03;4394464;32;20062;-72
2021/07/10 05:34:18;;;;;;;34.25;21.52;;;;;;;29.10;42.74;100712.75;4383694;32;20528;-72
2021/07/10 05:36:44;;;;;;;37.00;22.62;;;;;;;29.10;42.74;100709.88;4390193;32;20027;-72
2021/07/10 05:39:10;;;;;;;34.70;22.48;;;;;;;29.23;42.46;100712.69;4385790;32;20062;-72
2021/07/10 05:41:36;;;;;;;31.92;19.85;;;;;;;29.14;42.39;100704.50;4391394;32;20551;-72
2021/07/10 05:44:02;;;;;;;33.30;21.50;;;;;;;29.41;41.67;100705.81;4391214;32;20046;-71
2021/07/10 05:46:28;;;;;;;33.45;21.27;;;;;;;29.53;41.82;100704.16;4389964;32;20124;-72
2021/07/10 05:48:54;;;;;;;33.35;21.60;;;;;;;29.52;41.85;100714.19;4391061;32;20082;-72
2021/07/10 05:51:19;;;;;;;31.77;21.55;;;;;;;29.53;41.73;100704.16;4384440;32;20150;-71
2021/07/10 05:53:45;;;;;;;32.55;20.02;;;;;;;29.60;41.40;100709.22;4393926;32;20158;-72
2021/07/10 05:56:11;;;;;;;31.15;20.25;;;;;;;29.69;41.45;100711.63;4385798;32;22217;-72
2021/07/10 05:58:36;;;;;;;32.45;20.62;;;;;;;29.66;41.30;100707.72;4396403;32;20079;-72
2021/07/10 06:01:02;;;;;;;33.70;20.80;;;;;;;29.74;41.42;100710.66;4384924;32;20120;-74
2021/07/10 06:03:28;;;;;;;30.37;20.25;;;;;;;29.55;41.23;100707.25;4395089;32;20070;-71
2021/07/10 06:05:53;;;;;;;30.90;21.00;;;;;;;29.54;41.59;100712.28;4383003;32;20082;-71
2021/07/10 06:08:19;;;;;;;34.97;20.27;;;;;;;29.46;41.68;100702.78;4396095;32;20035;-74
2021/07/10 06:10:45;;;;;;;32.28;20.20;;;;;;;29.59;41.46;100701.84;4379454;32;20078;-72
2021/07/10 06:13:11;;;;;;;28.42;18.67;;;;;;;29.42;41.49;100705.25;4380273;32;20196;-72
2021/07/10 06:15:37;;;;;;;32.03;19.75;;;;;;;29.59;41.63;100708.44;4395166;32;20329;-72
2021/07/10 06:18:03;;;;;;;33.60;20.67;;;;;;;29.65;41.32;100702.50;4388896;32;20077;-71
2021/07/10 06:20:28;;;;;;;32.15;19.52;;;;;;;29.65;41.45;100706.19;4393972;32;20447;-71
2021/07/10 06:22:54;;;;;;;30.52;19.30;;;;;;;29.64;41.19;100710.44;4383127;32;20104;-72
2021/07/10 06:25:21;;;;;;;30.48;20.30;;;;;;;29.70;41.37;100713.16;4398571;32;20503;-71
2021/07/10 06:27:49;;;;;;;33.58;18.87;;;;;;;29.76;41.04;100705.84;4380961;32;20077;-72
2021/07/10 06:30:16;;;;;;;27.98;18.50;;;;;;;29.94;40.98;100712.69;4395824;32;20065;-72
2021/07/10 06:32:43;;;;;;;31.55;18.95;;;;;;;29.83;41.34;100715.94;4383967;32;20038;-71
2021/07/10 06:35:10;;;;;;;31.67;20.30;;;;;;;29.65;41.17;100714.87;4394975;32;20077;-72
2021/07/10 06:37:36;;;;;;;33.80;19.12;;;;;;;29.70;41.33;100708.13;4386409;32;20359;-72
2021/07/10 06:40:05;;;;;;;31.30;19.92;;;;;;;29.58;41.49;100711.91;4395972;32;20458;-72
2021/07/10 06:42:30;;;;;;;30.33;19.23;;;;;;;30.02;40.61;100704.78;4383859;32;20050;-72
2021/07/10 06:44:56;;;;;;;36.83;19.15;;;;;;;29.88;41.08;100709.19;4393891;32;20486;-74
2021/07/10 06:47:22;;;;;;;34.10;18.98;;;;;;;29.86;40.84;100709.75;4383723;32;20207;-73
2021/07/10 06:49:48;;;;;;;34.45;19.98;;;;;;;29.68;41.46;100707.16;4397542;32;20061;-73
2021/07/10 06:52:14;;;;;;;30.85;19.15;;;;;;;29.89;41.04;100714.41;4382051;32;20057;-73
2021/07/10 06:54:40;;;;;;;32.65;18.60;;;;;;;29.99;40.75;100714.63;4396911;32;20078;-73
2021/07/10 06:57:06;;;;;;;28.70;17.77;;;;;;;29.94;40.62;100721.41;4386761;32;20046;-73
2021/07/10 06:59:32;;;;;;;32.28;19.17;;;;;;;29.84;40.47;100717.47;4395644;32;20055;-73
2021/07/10 07:01:57;;;;;;;28.10;18.95;;;;;;;29.98;40.57;100716.00;4380287;32;20046;-73
2021/07/10 07:04:24;;;;;;;31.50;19.00;;;;;;;29.81;40.77;100713.59;4392159;32;20088;-73
2021/07/10 07:06:49;;;;;;;30.48;18.30;;;;;;;29.85;40.21;100707.44;4387363;32;20078;-73
2021/07/10 07:09:15;;;;;;;31.52;19.80;;;;;;;30.03;40.08;100712.16;4391388;32;20131;-73
2021/07/10 07:11:43;;;;;;;29.27;18.17;;;;;;;30.03;40.29;100709.25;4387947;32;20077;-73
2021/07/10 07:14:09;;;;;;;25.10;17.12;;;;;;;30.15;39.74;100707.50;4387446;32;20438;-73
2021/07/10 07:16:35;;;;;;;27.73;17.80;;;;;;;30.37;39.61;100706.84;4390871;32;20092;-71
2021/07/10 07:19:01;;;;;;;31.83;18.62;;;;;;;30.44;39.06;100706.06;4391927;32;21113;-73
2021/07/10 07:21:27;;;;;;;26.73;17.77;;;;;;;30.67;39.09;100710.56;4388427;32;20081;-73
2021/07/10 07:23:54;;;;;;;27.17;16.80;;;;;;;31.13;38.36;100710.56;4387498;32;20501;-71
2021/07/10 07:26:22;;;;;;;32.03;17.83;;;;;;;31.60;37.81;100701.97;4393082;32;20468;-74
2021/07/10 07:28:48;;;;;;;26.42;17.75;;;;;;;31.90;37.02;100710.59;4385190;32;20160;-72
2021/07/10 07:31:15;;;;;;;28.55;17.33;;;;;;;32.12;36.44;100712.63;4393013;32;20018;-72
2021/07/10 07:33:41;;;;;;;26.02;17.17;;;;;;;31.97;36.62;100715.59;4380084;32;20593;-71
2021/07/10 07:36:08;;;;;;;27.30;18.02;;;;;;;31.82;37.04;100722.28;4393823;32;20064;-71
2021/07/10 07:38:35;;;;;;;24.42;17.35;;;;;;;31.90;36.71;100719.34;4384161;32;20551;-72
2021/07/10 07:41:02;;;;;;;29.75;18.92;;;;;;;31.73;37.15;100719.94;4395030;32;20067;-72
2021/07/10 07:43:28;;;;;;;30.48;17.77;;;;;;;31.77;37.00;100719.53;4385796;32;20497;-72
2021/07/10 07:45:54;;;;;;;42.22;19.33;;;;;;;31.89;36.91;100720.69;4394568;32;20097;-71
2021/07/10 07:48:20;;;;;;;32.90;20.20;;;;;;;32.09;36.85;100719.63;4381614;32;20593;-74
2021/07/10 07:50:47;;;;;;;27.65;18.20;;;;;;;31.98;37.00;100709.19;4393488;32;20035;-71
2021/07/10 07:53:16;;;;;;;29.30;18.62;;;;;;;32.05;36.32;100714.19;4383080;32;20712;-72
2021/07/10 07:55:43;;;;;;;34.35;19.05;;;;;;;31.85;36.92;100703.62;4393658;32;20439;-71
2021/07/10 07:58:09;;;;;;;32.58;20.10;;;;;;;32.21;36.78;100712.75;4382804;32;20745;-72
2021/07/10 08:00:35;;;;;;;29.02;18.55;;;;;;;32.36;36.18;100709.78;4392598;32;20478;-71
2021/07/10 08:03:01;;;;;;;28.60;19.48;;;;;;;32.34;36.18;100711.75;4378670;32;20093;-71
2021/07/10 08:05:29;;;;;;;28.35;18.27;;;;;;;32.48;35.87;100704.25;4393166;32;20034;-71
2021/07/10 08:07:55;;;;;;;30.98;19.20;;;;;;;32.58;35.53;100711.75;4386628;32;21658;-71
2021/07/10 08:10:21;;;;;;;33.05;18.52;;;;;;;32.41;36.05;100711.69;4394365;32;20492;-71
2021/07/10 08:12:49;;;;;;;27.50;18.15;;;;;;;32.58;35.91;100711.00;4394019;32;20543;-72
2021/07/10 08:15:17;;;;;;;28.35;17.90;;;;;;;32.67;36.11;100711.09;4390017;32;20047;-72
2021/07/10 08:17:44;;;;;;;30.92;19.23;;;;;;;32.54;36.16;100711.41;4392324;32;20109;-72
2021/07/10 08:20:11;;;;;;;28.65;18.48;;;;;;;32.39;36.33;100705.69;4387947;32;20100;-72
2021/07/10 08:22:37;;;;;;;31.77;18.85;;;;;;;32.63;35.88;100706.31;4392708;32;20115;-72
2021/07/10 08:25:04;;;;;;;29.85;19.90;;;;;;;32.33;36.42;100705.09;4389588;32;20093;-72
2021/07/10 08:27:30;;;;;;;30.23;18.62;;;;;;;32.57;36.06;100710.22;4391488;32;20027;-72
2021/07/10 08:29:56;;;;;;;34.47;19.08;;;;;;;32.53;35.72;100709.09;4379323;32;20049;-72
2021/07/10 08:32:21;;;;;;;32.03;18.85;;;;;;;32.12;36.17;100704.63;4397719;32;20057;-72
2021/07/10 08:34:47;;;;;;;30.80;19.65;;;;;;;31.96;36.63;100696.56;4382417;32;20399;-72
2021/07/10 08:37:13;;;;;;;31.12;19.27;;;;;;;31.75;37.13;100708.47;4394396;32;20065;-71
2021/07/10 08:39:39;;;;;;;33.40;20.50;;;;;;;31.80;36.95;100697.97;4383202;32;20130;-72
2021/07/10 08:42:05;;;;;;;37.70;20.65;;;;;;;32.07;36.70;100702.75;4393776;32;20043;-72
2021/07/10 08:44:33;;;;;;;36.00;19.23;;;;;;;32.21;36.66;100704.00;4382661;32;20064;-72
2021/07/10 08:47:00;;;;;;;30.08;19.35;;;;;;;32.79;35.72;100699.72;4398183;32;20069;-72
2021/07/10 08:49:26;;;;;;;32.80;18.30;;;;;;;32.73;35.39;100702.13;4380075;32;20038;-72
2021/07/10 08:51:52;;;;;;;34.92;19.40;;;;;;;32.74;34.94;100697.06;4389772;32;20418;-71
2021/07/10 08:54:18;;;;;;;31.73;18.42;;;;;;;32.80;35.20;100694.69;4382117;32;20134;-72
2021/07/10 08:56:45;;;;;;;32.85;20.23;;;;;;;32.96;34.79;100690.28;4396891;32;20053;-72
2021/07/10 08:59:12;;;;;;;32.28;18.83;;;;;;;32.70;35.39;100687.97;4381386;32;20065;-72
2021/07/10 09:01:38;;;;;;;32.35;18.25;;;;;;;33.26;34.80;100681.25;4392020;32;20081;-72
2021/07/10 09:04:05;;;;;;;35.78;20.52;;;;;;;33.33;34.79;100684.09;4382390;32;20450;-72
2021/07/10 09:06:34;;;;;;;36.05;20.58;;;;;;;32.83;35.05;100685.53;4392117;32;20098;-72
2021/07/10 09:09:03;;;;;;;33.60;20.42;;;;;;;33.28;34.73;100688.03;4380667;32;20034;-71
2021/07/10 09:11:29;;;;;;;35.33;20.35;;;;;;;33.14;34.78;100681.00;4388910;32;20485;-71
2021/07/10 09:13:55;;;;;;;33.67;20.08;;;;;;;33.18;34.39;100689.28;4383830;32;20038;-71
2021/07/10 09:16:31;;;;;;;31.83;19.65;;;;;;;33.52;34.04;100677.66;4392935;32;20378;-71
2021/07/10 09:19:01;;;;;;;33.22;19.65;;;;;;;34.06;33.21;100683.03;4389487;32;20039;-71
2021/07/10 09:21:48;;;;;;;31.05;19.23;;;;;;;34.19;32.72;100679.72;4388980;32;20499;-71
2021/07/10 09:24:25;;;;;;;32.95;18.50;;;;;;;34.21;32.68;100684.97;4396774;32;20080;-72
2021/07/10 09:26:55;;;;;;;40.10;21.05;;;;;;;34.39;32.38;100680.63;4371158;32;20710;-72
2021/07/10 09:29:24;;;;;;;28.40;19.50;;;;;;;34.26;32.90;100680.97;4399509;32;20038;-71
2021/07/10 09:32:00;;;;;;;36.38;20.27;;;;;;;34.21;32.49;100682.03;4383715;32;20112;-71
2021/07/10 09:34:39;;;;;;;35.80;20.48;;;;;;;34.41;32.53;100683.69;4393715;32;20179;-72
2021/07/10 09:39:45;;;;;;;29.40;19.42;;;;;;;34.62;32.74;100686.09;3974438;31;15839566;-71
2021/07/10 09:42:13;;;;;;;31.60;19.17;;;;;;;34.62;32.74;100686.09;4438691;32;20090;-72
2021/07/10 09:44:50;;;;;;;34.60;20.70;;;;;;;33.88;33.25;100677.81;4457839;32;20105;-71
2021/07/10 09:47:23;;;;;;;32.58;20.90;;;;;;;33.68;33.56;100671.03;4437104;32;20055;-72
2021/07/10 09:49:49;;;;;;;33.78;20.25;;;;;;;33.77;33.63;100679.09;4455708;32;20080;-72
2021/07/10 09:52:17;;;;;;;31.08;18.37;;;;;;;33.35;34.46;100677.66;4441408;32;20084;-72
2021/07/10 09:54:51;;;;;;;29.75;18.27;;;;;;;34.08;33.36;100679.50;4459043;32;20098;-72
2021/07/10 09:59:56;;;;;;;29.15;19.90;;;;;;;35.27;31.29;100678.91;3974889;32;15025628;-72
2021/07/10 10:02:29;;;;;;;28.10;17.60;;;;;;;35.27;31.29;100678.91;4422954;32;20075;-72
2021/07/10 10:05:12;;;;;;;26.05;15.98;;;;;;;35.10;31.08;100679.06;4406361;32;21114;-72
2021/07/10 10:07:55;;;;;;;25.88;16.27;;;;;;;35.61;30.41;100680.81;4421712;32;20030;-72
2021/07/10 10:15:49;;;;;;;28.33;17.52;;;;;;;35.23;31.08;100680.75;3970829;32;15021532;-73
2021/07/10 10:18:19;;;;;;;26.80;15.93;;;;;;;35.23;31.08;100680.75;4437029;32;20076;-73
2021/07/10 10:20:45;;;;;;;25.80;15.88;;;;;;;34.40;31.79;100682.16;4419946;32;20102;-73
2021/07/10 10:23:12;;;;;;;30.88;18.67;;;;;;;33.33;33.39;100668.72;4436392;32;20556;-72
2021/07/10 10:25:39;;;;;;;28.73;17.55;;;;;;;33.25;35.33;100665.88;4418845;32;20144;-72
2021/07/10 10:28:07;;;;;;;27.90;18.15;;;;;;;33.02;35.69;100668.28;4440553;32;20038;-72
2021/07/10 10:30:34;;;;;;;30.58;18.80;;;;;;;33.24;35.93;100666.47;4421264;32;20146;-72
2021/07/10 10:33:00;;;;;;;28.92;18.45;;;;;;;33.17;36.28;100667.34;4434802;32;20049;-72
2021/07/10 10:35:26;;;;;;;31.42;17.83;;;;;;;33.33;36.17;100668.72;4422640;32;20093;-73
2021/07/10 10:37:53;;;;;;;26.65;17.62;;;;;;;33.62;35.17;100664.69;4436863;32;20390;-73
2021/07/10 10:40:24;;;;;;;32.65;18.87;;;;;;;33.86;35.07;100663.81;4419867;32;20084;-72
2021/07/10 10:42:55;;;;;;;31.52;19.58;;;;;;;34.17;34.30;100664.94;4435136;32;20048;-72
2021/07/10 10:45:31;;;;;;;34.28;19.12;;;;;;;34.36;34.58;100665.06;4421711;32;20050;-72
2021/07/10 10:47:57;;;;;;;30.08;18.00;;;;;;;34.94;33.27;100659.47;4434733;32;20099;-73
2021/07/10 10:53:00;;;;;;;30.75;17.85;;;;;;;35.65;31.26;100655.53;3985721;32;15024301;-73
2021/07/10 10:58:26;;;;;;;36.38;20.62;;;;;;;37.40;29.23;100662.44;3985437;32;15022149;-73
2021/07/10 11:03:38;;;;;;;33.83;19.60;;;;;;;38.10;27.84;100657.66;3978035;32;15023332;-72
2021/07/10 11:06:05;;;;;;;26.70;17.40;;;;;;;38.10;27.84;100657.66;4436379;32;20092;-72
2021/07/10 11:13:57;;;;;;;26.70;17.50;;;;;;;37.86;27.90;100651.66;3986602;32;15035059;-72
2021/07/10 11:16:23;;;;;;;26.42;17.92;;;;;;;37.86;27.90;100651.66;4423890;32;20148;-72
2021/07/10 11:29:39;;;;;;;36.47;19.15;;;;;;;38.37;26.77;100649.91;3983654;32;15021762;-72
2021/07/10 11:34:51;;;;;;;34.60;18.70;;;;;;;38.00;27.46;100639.34;3987615;32;15024433;-72
2021/07/10 11:37:19;;;;;;;35.15;18.85;;;;;;;38.00;27.46;100639.34;4420856;32;20412;-72
2021/07/10 11:44:59;;;;;;;30.75;17.25;;;;;;;38.52;26.29;100640.56;3985346;32;15021431;-72
2021/07/10 11:47:46;;;;;;;31.10;18.30;;;;;;;38.52;26.29;100640.56;4419581;32;20455;-72
2021/07/10 11:50:18;;;;;;;37.63;20.17;;;;;;;37.88;27.05;100633.41;4426677;32;21480;-72
2021/07/10 11:55:43;;;;;;;28.62;17.70;;;;;;;36.62;28.66;100645.16;3969077;32;15024195;-71